sensor_id;sensor_type;location;lat;lon;timestamp;temperature;humidity
22379;DHT22;11357;49.990;7.370;2023-04-23T00:01:04;15.20;90.40
22379;DHT22;11357;49.990;7.370;2023-04-23T00:03:31;15.20;90.40
22379;DHT22;11357;49.990;7.370;2023-04-23T00:06:05;15.20;90.50
22379;DHT22;11357;49.990;7.370;2023-04-23T00:08:31;15.20;90.50
22379;DHT22;11357;49.990;7.370;2023-04-23T00:10:57;15.20;90.50
22379;DHT22;11357;49.990;7.370;2023-04-23T00:13:23;15.20;90.50
22379;DHT22;11357;49.990;7.370;2023-04-23T00:15:49;15.20;90.50
22379;DHT22;11357;49.990;7.370;2023-04-23T00:18:15;15.20;90.50
22379;DHT22;11357;49.990;7.370;2023-04-23T00:20:44;15.20;90.50
22379;DHT22;11357;49.990;7.370;2023-04-23T00:23:10;15.20;90.50
22379;DHT22;11357;49.990;7.370;2023-04-23T00:25:36;15.20;90.50
22379;DHT22;11357;49.990;7.370;2023-04-23T00:28:02;15.20;90.50
22379;DHT22;11357;49.990;7.370;2023-04-23T00:30:27;15.20;90.50
22379;DHT22;11357;49.990;7.370;2023-04-23T00:32:53;15.20;90.40
22379;DHT22;11357;49.990;7.370;2023-04-23T00:35:18;15.30;90.50
22379;DHT22;11357;49.990;7.370;2023-04-23T00:37:45;15.20;90.40
22379;DHT22;11357;49.990;7.370;2023-04-23T00:40:11;15.20;90.50
22379;DHT22;11357;49.990;7.370;2023-04-23T00:42:38;15.20;90.50
22379;DHT22;11357;49.990;7.370;2023-04-23T00:45:05;15.20;90.50
22379;DHT22;11357;49.990;7.370;2023-04-23T00:47:33;15.20;90.50
22379;DHT22;11357;49.990;7.370;2023-04-23T00:49:59;15.10;90.50
22379;DHT22;11357;49.990;7.370;2023-04-23T00:52:25;15.10;90.60
22379;DHT22;11357;49.990;7.370;2023-04-23T00:54:51;15.10;90.60
22379;DHT22;11357;49.990;7.370;2023-04-23T00:57:17;15.10;90.60
22379;DHT22;11357;49.990;7.370;2023-04-23T00:59:43;15.10;90.60
22379;DHT22;11357;49.990;7.370;2023-04-23T01:02:09;15.10;90.60
22379;DHT22;11357;49.990;7.370;2023-04-23T01:04:36;15.10;90.60
22379;DHT22;11357;49.990;7.370;2023-04-23T01:07:02;15.10;90.70
22379;DHT22;11357;49.990;7.370;2023-04-23T01:09:28;15.10;90.70
22379;DHT22;11357;49.990;7.370;2023-04-23T01:11:56;15.20;90.70
22379;DHT22;11357;49.990;7.370;2023-04-23T01:16:50;15.20;90.70
22379;DHT22;11357;49.990;7.370;2023-04-23T01:19:17;15.20;90.70
22379;DHT22;11357;49.990;7.370;2023-04-23T01:21:43;15.20;90.70
22379;DHT22;11357;49.990;7.370;2023-04-23T01:24:10;15.30;90.70
22379;DHT22;11357;49.990;7.370;2023-04-23T01:26:36;15.30;90.70
22379;DHT22;11357;49.990;7.370;2023-04-23T01:29:02;15.30;90.70
22379;DHT22;11357;49.990;7.370;2023-04-23T01:31:28;15.20;90.70
22379;DHT22;11357;49.990;7.370;2023-04-23T01:33:55;15.20;90.70
22379;DHT22;11357;49.990;7.370;2023-04-23T01:36:24;15.30;90.80
22379;DHT22;11357;49.990;7.370;2023-04-23T01:38:51;15.30;90.80
22379;DHT22;11357;49.990;7.370;2023-04-23T01:41:17;15.30;90.70
22379;DHT22;11357;49.990;7.370;2023-04-23T01:43:44;15.20;90.70
22379;DHT22;11357;49.990;7.370;2023-04-23T01:46:11;15.20;90.80
22379;DHT22;11357;49.990;7.370;2023-04-23T01:48:37;15.30;90.80
22379;DHT22;11357;49.990;7.370;2023-04-23T01:51:03;15.30;90.80
22379;DHT22;11357;49.990;7.370;2023-04-23T01:53:29;15.20;90.70
22379;DHT22;11357;49.990;7.370;2023-04-23T01:55:55;15.20;90.70
22379;DHT22;11357;49.990;7.370;2023-04-23T01:58:21;15.20;90.70
22379;DHT22;11357;49.990;7.370;2023-04-23T02:00:48;15.20;90.70
22379;DHT22;11357;49.990;7.370;2023-04-23T02:03:14;15.10;90.60
22379;DHT22;11357;49.990;7.370;2023-04-23T02:05:40;15.10;90.60
22379;DHT22;11357;49.990;7.370;2023-04-23T02:08:06;15.10;90.70
22379;DHT22;11357;49.990;7.370;2023-04-23T02:10:32;15.00;90.60
22379;DHT22;11357;49.990;7.370;2023-04-23T02:12:58;15.00;90.60
22379;DHT22;11357;49.990;7.370;2023-04-23T02:15:24;15.00;90.70
22379;DHT22;11357;49.990;7.370;2023-04-23T02:17:50;14.90;90.70
22379;DHT22;11357;49.990;7.370;2023-04-23T02:20:17;14.90;90.70
22379;DHT22;11357;49.990;7.370;2023-04-23T02:22:44;14.80;90.70
22379;DHT22;11357;49.990;7.370;2023-04-23T02:25:10;14.80;90.70
22379;DHT22;11357;49.990;7.370;2023-04-23T02:27:36;14.80;90.70
22379;DHT22;11357;49.990;7.370;2023-04-23T02:30:02;14.70;90.70
22379;DHT22;11357;49.990;7.370;2023-04-23T02:32:28;14.70;90.80
22379;DHT22;11357;49.990;7.370;2023-04-23T02:34:54;14.70;90.80
22379;DHT22;11357;49.990;7.370;2023-04-23T02:37:20;14.70;90.80
22379;DHT22;11357;49.990;7.370;2023-04-23T02:39:46;14.70;90.80
22379;DHT22;11357;49.990;7.370;2023-04-23T02:42:12;14.70;90.80
22379;DHT22;11357;49.990;7.370;2023-04-23T02:44:38;14.60;90.80
22379;DHT22;11357;49.990;7.370;2023-04-23T02:47:03;14.60;90.80
22379;DHT22;11357;49.990;7.370;2023-04-23T02:49:29;14.60;90.90
22379;DHT22;11357;49.990;7.370;2023-04-23T02:51:55;14.60;90.90
22379;DHT22;11357;49.990;7.370;2023-04-23T02:54:20;14.50;90.90
22379;DHT22;11357;49.990;7.370;2023-04-23T02:56:46;14.50;90.90
22379;DHT22;11357;49.990;7.370;2023-04-23T02:59:12;14.50;90.90
22379;DHT22;11357;49.990;7.370;2023-04-23T03:01:38;14.50;90.90
22379;DHT22;11357;49.990;7.370;2023-04-23T03:04:03;14.50;90.90
22379;DHT22;11357;49.990;7.370;2023-04-23T03:06:29;14.50;90.90
22379;DHT22;11357;49.990;7.370;2023-04-23T03:08:56;14.50;90.90
22379;DHT22;11357;49.990;7.370;2023-04-23T03:11:22;14.50;90.90
22379;DHT22;11357;49.990;7.370;2023-04-23T03:55:21;14.30;90.40
22379;DHT22;11357;49.990;7.370;2023-04-23T03:57:47;14.20;90.40
22379;DHT22;11357;49.990;7.370;2023-04-23T04:00:13;14.10;90.30
22379;DHT22;11357;49.990;7.370;2023-04-23T04:02:39;14.10;90.30
22379;DHT22;11357;49.990;7.370;2023-04-23T04:05:05;13.90;90.20
22379;DHT22;11357;49.990;7.370;2023-04-23T04:07:31;13.90;90.20
22379;DHT22;11357;49.990;7.370;2023-04-23T04:09:58;13.80;90.20
22379;DHT22;11357;49.990;7.370;2023-04-23T04:12:23;13.70;90.20
22379;DHT22;11357;49.990;7.370;2023-04-23T04:14:50;13.60;90.20
22379;DHT22;11357;49.990;7.370;2023-04-23T04:17:15;13.50;90.20
22379;DHT22;11357;49.990;7.370;2023-04-23T04:19:41;13.40;90.20
22379;DHT22;11357;49.990;7.370;2023-04-23T04:22:08;13.40;90.20
22379;DHT22;11357;49.990;7.370;2023-04-23T04:24:34;13.30;90.20
22379;DHT22;11357;49.990;7.370;2023-04-23T04:27:00;13.20;90.20
22379;DHT22;11357;49.990;7.370;2023-04-23T04:29:26;13.20;90.30
22379;DHT22;11357;49.990;7.370;2023-04-23T04:31:53;13.10;90.30
22379;DHT22;11357;49.990;7.370;2023-04-23T04:34:19;13.10;90.40
22379;DHT22;11357;49.990;7.370;2023-04-23T04:36:44;13.00;90.30
22379;DHT22;11357;49.990;7.370;2023-04-23T04:39:11;13.00;90.30
22379;DHT22;11357;49.990;7.370;2023-04-23T04:41:39;13.00;90.70
22379;DHT22;11357;49.990;7.370;2023-04-23T04:44:05;13.00;90.40
22379;DHT22;11357;49.990;7.370;2023-04-23T04:46:32;12.90;90.40
22379;DHT22;11357;49.990;7.370;2023-04-23T04:48:59;12.90;90.40
22379;DHT22;11357;49.990;7.370;2023-04-23T04:51:25;13.00;90.40
22379;DHT22;11357;49.990;7.370;2023-04-23T04:53:51;13.00;90.40
22379;DHT22;11357;49.990;7.370;2023-04-23T04:56:17;13.10;90.40
22379;DHT22;11357;49.990;7.370;2023-04-23T04:58:43;13.20;90.50
22379;DHT22;11357;49.990;7.370;2023-04-23T05:01:08;13.20;90.50
22379;DHT22;11357;49.990;7.370;2023-04-23T05:03:35;13.30;90.60
22379;DHT22;11357;49.990;7.370;2023-04-23T05:06:01;13.40;90.60
22379;DHT22;11357;49.990;7.370;2023-04-23T05:08:27;13.50;90.60
22379;DHT22;11357;49.990;7.370;2023-04-23T05:10:52;13.70;90.60
22379;DHT22;11357;49.990;7.370;2023-04-23T05:13:18;13.80;90.50
22379;DHT22;11357;49.990;7.370;2023-04-23T05:15:45;14.00;90.50
22379;DHT22;11357;49.990;7.370;2023-04-23T05:18:10;14.30;90.50
22379;DHT22;11357;49.990;7.370;2023-04-23T05:20:37;14.50;90.50
22379;DHT22;11357;49.990;7.370;2023-04-23T05:23:02;14.70;90.40
22379;DHT22;11357;49.990;7.370;2023-04-23T05:25:29;14.80;90.30
22379;DHT22;11357;49.990;7.370;2023-04-23T05:27:56;14.90;90.20
22379;DHT22;11357;49.990;7.370;2023-04-23T05:30:21;15.00;90.10
22379;DHT22;11357;49.990;7.370;2023-04-23T05:32:48;15.00;90.00
22379;DHT22;11357;49.990;7.370;2023-04-23T05:35:14;15.10;90.00
22379;DHT22;11357;49.990;7.370;2023-04-23T05:37:41;15.20;89.90
22379;DHT22;11357;49.990;7.370;2023-04-23T05:40:07;15.20;89.60
22379;DHT22;11357;49.990;7.370;2023-04-23T05:42:34;15.20;89.40
22379;DHT22;11357;49.990;7.370;2023-04-23T05:45:00;15.10;89.40
22379;DHT22;11357;49.990;7.370;2023-04-23T05:47:27;15.10;89.60
22379;DHT22;11357;49.990;7.370;2023-04-23T05:49:53;15.10;89.60
22379;DHT22;11357;49.990;7.370;2023-04-23T05:52:18;15.10;89.60
22379;DHT22;11357;49.990;7.370;2023-04-23T05:54:44;15.10;89.70
22379;DHT22;11357;49.990;7.370;2023-04-23T05:57:10;15.20;89.60
22379;DHT22;11357;49.990;7.370;2023-04-23T05:59:36;15.20;89.40
22379;DHT22;11357;49.990;7.370;2023-04-23T06:02:02;15.30;89.50
22379;DHT22;11357;49.990;7.370;2023-04-23T06:04:27;15.30;89.30
22379;DHT22;11357;49.990;7.370;2023-04-23T06:06:53;15.30;89.30
22379;DHT22;11357;49.990;7.370;2023-04-23T06:09:19;15.20;89.20
22379;DHT22;11357;49.990;7.370;2023-04-23T06:11:44;15.20;89.50
22379;DHT22;11357;49.990;7.370;2023-04-23T06:14:10;15.30;89.60
22379;DHT22;11357;49.990;7.370;2023-04-23T06:16:36;15.30;89.50
22379;DHT22;11357;49.990;7.370;2023-04-23T06:19:02;15.40;89.60
22379;DHT22;11357;49.990;7.370;2023-04-23T06:21:28;15.50;89.60
22379;DHT22;11357;49.990;7.370;2023-04-23T06:23:54;15.50;89.60
22379;DHT22;11357;49.990;7.370;2023-04-23T06:26:19;15.60;89.40
22379;DHT22;11357;49.990;7.370;2023-04-23T06:28:45;15.60;89.20
22379;DHT22;11357;49.990;7.370;2023-04-23T06:31:11;15.70;89.00
22379;DHT22;11357;49.990;7.370;2023-04-23T06:33:37;15.90;88.70
22379;DHT22;11357;49.990;7.370;2023-04-23T06:36:04;16.00;88.30
22379;DHT22;11357;49.990;7.370;2023-04-23T06:38:30;16.10;88.00
22379;DHT22;11357;49.990;7.370;2023-04-23T06:40:56;16.30;88.00
22379;DHT22;11357;49.990;7.370;2023-04-23T06:43:24;16.60;87.50
22379;DHT22;11357;49.990;7.370;2023-04-23T06:45:49;16.90;87.10
22379;DHT22;11357;49.990;7.370;2023-04-23T06:48:15;17.30;86.50
22379;DHT22;11357;49.990;7.370;2023-04-23T06:50:43;17.70;85.80
22379;DHT22;11357;49.990;7.370;2023-04-23T06:53:09;18.20;84.80
22379;DHT22;11357;49.990;7.370;2023-04-23T06:55:34;18.30;83.50
22379;DHT22;11357;49.990;7.370;2023-04-23T06:58:00;18.40;82.70
22379;DHT22;11357;49.990;7.370;2023-04-23T07:00:26;18.30;82.20
22379;DHT22;11357;49.990;7.370;2023-04-23T07:02:51;18.20;82.00
22379;DHT22;11357;49.990;7.370;2023-04-23T07:05:17;18.00;82.00
22379;DHT22;11357;49.990;7.370;2023-04-23T07:07:43;17.80;81.90
22379;DHT22;11357;49.990;7.370;2023-04-23T07:10:12;17.60;82.00
22379;DHT22;11357;49.990;7.370;2023-04-23T07:12:38;17.40;82.50
22379;DHT22;11357;49.990;7.370;2023-04-23T07:15:05;17.40;82.80
22379;DHT22;11357;49.990;7.370;2023-04-23T07:17:31;17.40;82.90
22379;DHT22;11357;49.990;7.370;2023-04-23T07:19:57;17.40;83.00
22379;DHT22;11357;49.990;7.370;2023-04-23T07:22:23;17.40;83.00
22379;DHT22;11357;49.990;7.370;2023-04-23T07:24:50;17.50;83.10
22379;DHT22;11357;49.990;7.370;2023-04-23T07:27:15;17.60;83.00
22379;DHT22;11357;49.990;7.370;2023-04-23T07:29:41;17.70;82.80
22379;DHT22;11357;49.990;7.370;2023-04-23T07:32:06;17.80;82.60
22379;DHT22;11357;49.990;7.370;2023-04-23T07:34:32;17.90;82.40
22379;DHT22;11357;49.990;7.370;2023-04-23T07:36:58;18.10;82.10
22379;DHT22;11357;49.990;7.370;2023-04-23T07:39:24;18.40;81.70
22379;DHT22;11357;49.990;7.370;2023-04-23T07:41:49;18.80;81.40
22379;DHT22;11357;49.990;7.370;2023-04-23T07:44:15;19.20;80.60
22379;DHT22;11357;49.990;7.370;2023-04-23T07:46:41;19.30;79.60
22379;DHT22;11357;49.990;7.370;2023-04-23T07:49:07;19.40;79.10
22379;DHT22;11357;49.990;7.370;2023-04-23T07:51:32;19.60;78.70
22379;DHT22;11357;49.990;7.370;2023-04-23T07:53:58;20.00;77.90
22379;DHT22;11357;49.990;7.370;2023-04-23T07:56:24;20.30;77.00
22379;DHT22;11357;49.990;7.370;2023-04-23T07:58:50;20.70;76.00
22379;DHT22;11357;49.990;7.370;2023-04-23T08:01:18;21.00;75.40
22379;DHT22;11357;49.990;7.370;2023-04-23T08:03:43;21.20;74.30
22379;DHT22;11357;49.990;7.370;2023-04-23T08:06:10;21.30;73.50
22379;DHT22;11357;49.990;7.370;2023-04-23T08:08:37;21.00;73.10
22379;DHT22;11357;49.990;7.370;2023-04-23T08:11:04;20.80;73.20
22379;DHT22;11357;49.990;7.370;2023-04-23T08:13:29;20.70;73.50
22379;DHT22;11357;49.990;7.370;2023-04-23T08:15:55;20.70;73.50
22379;DHT22;11357;49.990;7.370;2023-04-23T08:18:21;20.50;73.30
22379;DHT22;11357;49.990;7.370;2023-04-23T08:20:47;20.50;74.00
22379;DHT22;11357;49.990;7.370;2023-04-23T08:23:13;21.00;73.30
22379;DHT22;11357;49.990;7.370;2023-04-23T08:25:39;21.70;72.00
22379;DHT22;11357;49.990;7.370;2023-04-23T08:28:04;22.10;70.50
22379;DHT22;11357;49.990;7.370;2023-04-23T08:30:30;22.30;69.80
22379;DHT22;11357;49.990;7.370;2023-04-23T08:32:56;22.80;68.80
22379;DHT22;11357;49.990;7.370;2023-04-23T08:35:22;23.30;67.10
22379;DHT22;11357;49.990;7.370;2023-04-23T08:37:48;23.60;65.60
22379;DHT22;11357;49.990;7.370;2023-04-23T08:40:14;23.90;64.10
22379;DHT22;11357;49.990;7.370;2023-04-23T08:42:53;23.90;62.40
22379;DHT22;11357;49.990;7.370;2023-04-23T08:45:22;24.00;61.20
22379;DHT22;11357;49.990;7.370;2023-04-23T08:47:48;24.10;61.20
22379;DHT22;11357;49.990;7.370;2023-04-23T08:50:16;24.20;61.10
22379;DHT22;11357;49.990;7.370;2023-04-23T08:53:02;24.20;61.10
22379;DHT22;11357;49.990;7.370;2023-04-23T08:55:28;24.20;60.70
22379;DHT22;11357;49.990;7.370;2023-04-23T08:57:56;24.10;60.10
22379;DHT22;11357;49.990;7.370;2023-04-23T09:00:22;23.80;60.00
22379;DHT22;11357;49.990;7.370;2023-04-23T09:02:50;23.50;60.40
22379;DHT22;11357;49.990;7.370;2023-04-23T09:05:16;23.20;61.30
22379;DHT22;11357;49.990;7.370;2023-04-23T09:07:42;23.00;61.60
22379;DHT22;11357;49.990;7.370;2023-04-23T09:10:09;23.00;61.70
22379;DHT22;11357;49.990;7.370;2023-04-23T09:12:40;23.00;61.20
22379;DHT22;11357;49.990;7.370;2023-04-23T09:15:06;23.10;61.10
22379;DHT22;11357;49.990;7.370;2023-04-23T09:17:44;23.30;61.00
22379;DHT22;11357;49.990;7.370;2023-04-23T09:20:11;23.50;60.30
22379;DHT22;11357;49.990;7.370;2023-04-23T09:22:48;23.80;59.60
22379;DHT22;11357;49.990;7.370;2023-04-23T09:25:16;24.20;59.40
22379;DHT22;11357;49.990;7.370;2023-04-23T09:27:42;24.80;58.70
22379;DHT22;11357;49.990;7.370;2023-04-23T09:30:09;25.10;57.00
22379;DHT22;11357;49.990;7.370;2023-04-23T09:32:36;25.00;56.70
22379;DHT22;11357;49.990;7.370;2023-04-23T09:35:03;25.00;56.70
22379;DHT22;11357;49.990;7.370;2023-04-23T09:37:30;25.10;56.50
22379;DHT22;11357;49.990;7.370;2023-04-23T09:40:05;25.20;55.30
22379;DHT22;11357;49.990;7.370;2023-04-23T09:42:35;25.10;55.50
22379;DHT22;11357;49.990;7.370;2023-04-23T09:45:07;25.10;55.30
22379;DHT22;11357;49.990;7.370;2023-04-23T09:47:41;25.20;54.90
22379;DHT22;11357;49.990;7.370;2023-04-23T09:50:12;25.20;54.40
22379;DHT22;11357;49.990;7.370;2023-04-23T09:52:39;25.40;54.20
22379;DHT22;11357;49.990;7.370;2023-04-23T09:55:06;25.40;53.90
22379;DHT22;11357;49.990;7.370;2023-04-23T09:57:40;25.20;53.70
22379;DHT22;11357;49.990;7.370;2023-04-23T10:00:17;24.80;54.30
22379;DHT22;11357;49.990;7.370;2023-04-23T10:02:47;24.40;54.60
22379;DHT22;11357;49.990;7.370;2023-04-23T10:10:24;23.40;56.90
22379;DHT22;11357;49.990;7.370;2023-04-23T10:12:51;23.30;56.50
22379;DHT22;11357;49.990;7.370;2023-04-23T10:15:24;23.20;56.60
22379;DHT22;11357;49.990;7.370;2023-04-23T10:17:51;22.90;56.70
22379;DHT22;11357;49.990;7.370;2023-04-23T10:20:20;22.70;56.90
22379;DHT22;11357;49.990;7.370;2023-04-23T10:22:46;22.60;57.30
22379;DHT22;11357;49.990;7.370;2023-04-23T10:25:12;22.50;57.20
22379;DHT22;11357;49.990;7.370;2023-04-23T10:27:42;22.50;57.50
22379;DHT22;11357;49.990;7.370;2023-04-23T10:32:50;22.80;57.20
22379;DHT22;11357;49.990;7.370;2023-04-23T10:42:56;23.40;56.00
22379;DHT22;11357;49.990;7.370;2023-04-23T10:45:21;23.30;55.50
22379;DHT22;11357;49.990;7.370;2023-04-23T10:47:47;23.20;55.90
22379;DHT22;11357;49.990;7.370;2023-04-23T10:50:27;22.80;55.80
22379;DHT22;11357;49.990;7.370;2023-04-23T10:52:53;22.40;56.80
22379;DHT22;11357;49.990;7.370;2023-04-23T10:55:25;22.10;57.10
22379;DHT22;11357;49.990;7.370;2023-04-23T11:00:21;21.70;57.60
22379;DHT22;11357;49.990;7.370;2023-04-23T11:02:49;21.70;58.00
22379;DHT22;11357;49.990;7.370;2023-04-23T11:05:16;21.60;58.00
22379;DHT22;11357;49.990;7.370;2023-04-23T11:07:41;21.90;58.00
22379;DHT22;11357;49.990;7.370;2023-04-23T11:10:26;22.60;57.80
22379;DHT22;11357;49.990;7.370;2023-04-23T11:12:54;23.20;56.20
22379;DHT22;11357;49.990;7.370;2023-04-23T11:15:20;23.90;55.70
22379;DHT22;11357;49.990;7.370;2023-04-23T11:20:17;25.50;53.00
22379;DHT22;11357;49.990;7.370;2023-04-23T11:22:44;26.00;52.00
22379;DHT22;11357;49.990;7.370;2023-04-23T11:27:47;27.00;50.20
22379;DHT22;11357;49.990;7.370;2023-04-23T11:30:19;26.70;49.20
22379;DHT22;11357;49.990;7.370;2023-04-23T11:32:53;26.50;49.80
22379;DHT22;11357;49.990;7.370;2023-04-23T11:35:21;26.10;49.40
22379;DHT22;11357;49.990;7.370;2023-04-23T11:37:48;26.00;49.90
22379;DHT22;11357;49.990;7.370;2023-04-23T11:40:15;26.00;49.40
22379;DHT22;11357;49.990;7.370;2023-04-23T11:42:48;25.80;49.50
22379;DHT22;11357;49.990;7.370;2023-04-23T11:45:26;25.50;50.00
22379;DHT22;11357;49.990;7.370;2023-04-23T11:47:56;25.00;49.70
22379;DHT22;11357;49.990;7.370;2023-04-23T11:50:29;25.10;50.30
22379;DHT22;11357;49.990;7.370;2023-04-23T11:53:03;25.50;50.20
22379;DHT22;11357;49.990;7.370;2023-04-23T11:55:29;25.40;49.50
22379;DHT22;11357;49.990;7.370;2023-04-23T11:57:55;25.30;49.30
22379;DHT22;11357;49.990;7.370;2023-04-23T12:00:23;25.10;49.30
22379;DHT22;11357;49.990;7.370;2023-04-23T12:02:56;25.20;49.20
22379;DHT22;11357;49.990;7.370;2023-04-23T12:07:52;26.50;47.60
22379;DHT22;11357;49.990;7.370;2023-04-23T12:10:19;27.00;46.40
22379;DHT22;11357;49.990;7.370;2023-04-23T12:12:51;27.30;45.20
22379;DHT22;11357;49.990;7.370;2023-04-23T12:15:18;27.50;44.80
22379;DHT22;11357;49.990;7.370;2023-04-23T12:20:33;28.00;43.50
22379;DHT22;11357;49.990;7.370;2023-04-23T12:23:03;28.30;43.80
22379;DHT22;11357;49.990;7.370;2023-04-23T12:25:29;28.50;43.50
22379;DHT22;11357;49.990;7.370;2023-04-23T12:27:58;28.40;43.70
22379;DHT22;11357;49.990;7.370;2023-04-23T12:30:30;28.30;43.70
22379;DHT22;11357;49.990;7.370;2023-04-23T12:35:57;28.30;43.60
22379;DHT22;11357;49.990;7.370;2023-04-23T12:38:27;28.70;43.40
22379;DHT22;11357;49.990;7.370;2023-04-23T12:40:57;28.90;42.70
22379;DHT22;11357;49.990;7.370;2023-04-23T12:43:24;29.30;42.70
22379;DHT22;11357;49.990;7.370;2023-04-23T12:45:50;29.40;42.10
22379;DHT22;11357;49.990;7.370;2023-04-23T12:48:17;29.40;41.90
22379;DHT22;11357;49.990;7.370;2023-04-23T12:50:46;29.20;41.20
22379;DHT22;11357;49.990;7.370;2023-04-23T12:53:12;29.20;42.10
22379;DHT22;11357;49.990;7.370;2023-04-23T12:55:38;28.90;42.00
22379;DHT22;11357;49.990;7.370;2023-04-23T12:58:04;28.60;41.70
22379;DHT22;11357;49.990;7.370;2023-04-23T13:00:30;28.30;41.80
22379;DHT22;11357;49.990;7.370;2023-04-23T13:02:56;27.80;41.90
22379;DHT22;11357;49.990;7.370;2023-04-23T13:05:22;27.40;42.60
22379;DHT22;11357;49.990;7.370;2023-04-23T13:07:48;26.90;42.70
22379;DHT22;11357;49.990;7.370;2023-04-23T13:10:14;26.40;43.30
22379;DHT22;11357;49.990;7.370;2023-04-23T13:12:40;26.10;44.10
22379;DHT22;11357;49.990;7.370;2023-04-23T13:15:07;26.00;44.60
22379;DHT22;11357;49.990;7.370;2023-04-23T13:17:35;25.90;44.50
22379;DHT22;11357;49.990;7.370;2023-04-23T13:20:00;25.80;44.50
22379;DHT22;11357;49.990;7.370;2023-04-23T13:22:26;25.60;44.40
22379;DHT22;11357;49.990;7.370;2023-04-23T13:24:56;25.60;45.00
22379;DHT22;11357;49.990;7.370;2023-04-23T13:27:24;25.60;44.60
22379;DHT22;11357;49.990;7.370;2023-04-23T13:29:50;25.50;43.90
22379;DHT22;11357;49.990;7.370;2023-04-23T13:32:16;25.60;43.30
22379;DHT22;11357;49.990;7.370;2023-04-23T13:34:42;25.60;43.60
22379;DHT22;11357;49.990;7.370;2023-04-23T13:37:08;25.60;43.60
22379;DHT22;11357;49.990;7.370;2023-04-23T13:39:37;25.80;43.50
22379;DHT22;11357;49.990;7.370;2023-04-23T13:42:03;25.90;43.60
22379;DHT22;11357;49.990;7.370;2023-04-23T13:44:32;25.90;43.80
22379;DHT22;11357;49.990;7.370;2023-04-23T13:46:58;25.70;44.00
22379;DHT22;11357;49.990;7.370;2023-04-23T13:49:25;25.50;44.00
22379;DHT22;11357;49.990;7.370;2023-04-23T13:51:52;25.40;44.60
22379;DHT22;11357;49.990;7.370;2023-04-23T13:54:23;25.30;45.10
22379;DHT22;11357;49.990;7.370;2023-04-23T13:56:53;25.20;45.90
22379;DHT22;11357;49.990;7.370;2023-04-23T13:59:20;25.10;45.70
22379;DHT22;11357;49.990;7.370;2023-04-23T14:01:46;25.00;45.60
22379;DHT22;11357;49.990;7.370;2023-04-23T14:04:14;24.80;46.30
22379;DHT22;11357;49.990;7.370;2023-04-23T14:06:40;24.70;46.90
22379;DHT22;11357;49.990;7.370;2023-04-23T14:09:06;24.60;47.20
22379;DHT22;11357;49.990;7.370;2023-04-23T14:11:32;24.50;47.00
22379;DHT22;11357;49.990;7.370;2023-04-23T14:13:58;24.20;47.00
22379;DHT22;11357;49.990;7.370;2023-04-23T14:16:25;24.00;47.10
22379;DHT22;11357;49.990;7.370;2023-04-23T14:18:51;23.60;47.60
22379;DHT22;11357;49.990;7.370;2023-04-23T14:21:17;23.40;48.20
22379;DHT22;11357;49.990;7.370;2023-04-23T14:24:28;23.30;48.40
22379;DHT22;11357;49.990;7.370;2023-04-23T14:26:57;23.30;48.90
22379;DHT22;11357;49.990;7.370;2023-04-23T14:31:57;23.20;48.80
22379;DHT22;11357;49.990;7.370;2023-04-23T14:34:23;23.20;48.80
22379;DHT22;11357;49.990;7.370;2023-04-23T14:36:49;23.10;49.60
22379;DHT22;11357;49.990;7.370;2023-04-23T14:39:17;23.10;49.20
22379;DHT22;11357;49.990;7.370;2023-04-23T14:41:43;23.20;48.90
22379;DHT22;11357;49.990;7.370;2023-04-23T14:44:09;23.10;48.80
22379;DHT22;11357;49.990;7.370;2023-04-23T14:46:34;22.90;48.40
22379;DHT22;11357;49.990;7.370;2023-04-23T14:49:00;22.80;48.50
22379;DHT22;11357;49.990;7.370;2023-04-23T14:51:26;22.70;48.30
22379;DHT22;11357;49.990;7.370;2023-04-23T14:53:52;22.60;48.30
22379;DHT22;11357;49.990;7.370;2023-04-23T14:56:18;22.60;48.30
22379;DHT22;11357;49.990;7.370;2023-04-23T14:58:44;22.40;49.20
22379;DHT22;11357;49.990;7.370;2023-04-23T15:01:09;22.30;48.60
22379;DHT22;11357;49.990;7.370;2023-04-23T15:03:35;22.20;49.20
22379;DHT22;11357;49.990;7.370;2023-04-23T15:06:02;22.00;49.60
22379;DHT22;11357;49.990;7.370;2023-04-23T15:08:28;21.80;50.00
22379;DHT22;11357;49.990;7.370;2023-04-23T15:10:53;21.70;50.60
22379;DHT22;11357;49.990;7.370;2023-04-23T15:16:02;21.10;51.10
22379;DHT22;11357;49.990;7.370;2023-04-23T15:18:31;20.70;53.60
22379;DHT22;11357;49.990;7.370;2023-04-23T15:20:58;20.10;56.10
22379;DHT22;11357;49.990;7.370;2023-04-23T15:23:29;19.60;58.30
22379;DHT22;11357;49.990;7.370;2023-04-23T15:25:55;19.10;60.10
22379;DHT22;11357;49.990;7.370;2023-04-23T15:28:23;18.70;61.50
22379;DHT22;11357;49.990;7.370;2023-04-23T15:30:49;18.50;62.80
22379;DHT22;11357;49.990;7.370;2023-04-23T15:33:15;18.30;64.00
22379;DHT22;11357;49.990;7.370;2023-04-23T15:35:46;18.10;64.70
22379;DHT22;11357;49.990;7.370;2023-04-23T15:38:13;18.00;65.20
22379;DHT22;11357;49.990;7.370;2023-04-23T15:40:38;17.90;65.80
22379;DHT22;11357;49.990;7.370;2023-04-23T15:43:09;17.80;66.30
22379;DHT22;11357;49.990;7.370;2023-04-23T15:45:35;17.80;66.90
22379;DHT22;11357;49.990;7.370;2023-04-23T15:48:01;17.80;67.00
22379;DHT22;11357;49.990;7.370;2023-04-23T15:50:27;17.90;67.10
22379;DHT22;11357;49.990;7.370;2023-04-23T15:52:53;18.00;67.20
22379;DHT22;11357;49.990;7.370;2023-04-23T15:55:21;18.10;67.40
22379;DHT22;11357;49.990;7.370;2023-04-23T15:57:47;18.10;67.40
22379;DHT22;11357;49.990;7.370;2023-04-23T16:00:13;18.10;67.50
22379;DHT22;11357;49.990;7.370;2023-04-23T16:02:41;18.00;67.60
22379;DHT22;11357;49.990;7.370;2023-04-23T16:05:07;18.00;67.80
22379;DHT22;11357;49.990;7.370;2023-04-23T16:07:32;18.00;68.20
22379;DHT22;11357;49.990;7.370;2023-04-23T16:09:58;17.90;68.40
22379;DHT22;11357;49.990;7.370;2023-04-23T16:12:24;17.90;68.60
22379;DHT22;11357;49.990;7.370;2023-04-23T16:14:50;17.80;68.70
22379;DHT22;11357;49.990;7.370;2023-04-23T16:17:15;17.80;69.20
22379;DHT22;11357;49.990;7.370;2023-04-23T16:19:41;17.70;69.60
22379;DHT22;11357;49.990;7.370;2023-04-23T16:22:07;17.60;69.90
22379;DHT22;11357;49.990;7.370;2023-04-23T16:24:35;17.40;70.30
22379;DHT22;11357;49.990;7.370;2023-04-23T16:27:01;17.20;70.90
22379;DHT22;11357;49.990;7.370;2023-04-23T16:29:27;17.10;71.60
22379;DHT22;11357;49.990;7.370;2023-04-23T16:31:52;17.00;72.30
22379;DHT22;11357;49.990;7.370;2023-04-23T16:34:18;16.90;72.90
22379;DHT22;11357;49.990;7.370;2023-04-23T16:36:45;16.80;73.60
22379;DHT22;11357;49.990;7.370;2023-04-23T16:39:10;16.60;74.20
22379;DHT22;11357;49.990;7.370;2023-04-23T16:41:36;16.60;75.00
22379;DHT22;11357;49.990;7.370;2023-04-23T16:44:03;16.50;75.40
22379;DHT22;11357;49.990;7.370;2023-04-23T16:46:30;16.40;75.90
22379;DHT22;11357;49.990;7.370;2023-04-23T16:49:18;16.30;76.40